Airfield :
LOGIN :

Register | Disclaimer

   EN    FR    IT 

 










Legend :    VFR   Marginal VFR   IFR   Intensive IFR   Very Intensive IFR
Visi :
Ceiling :
>= 8 km
>= 3000ft
5 to 8 km
1000 to 3000 ft
1500m to 5 km
500 to 1000 ft
800 to 1500m
200 to 500 ft
< 800m
< 200 ft
Symbols :   Thunderstorms  Fog  Heavy snow  Heavy precipitations  Wind > 20 kt
SIGMETs :     Misc.  Thunderstorms  Icing  Turbulence  Mountain Waves  Volcanic Ashes







- Airport Elevation : 1516 ft
- IATA code : AGB


EDMA - Augsburg

CURRENT METAR :
  • 190250Z AUTO 24012KT 7000 // OVC008/// 01/00 Q1015

EXPIRED METARs :
  • 190220Z AUTO 23014KT 9999 // BKN011/// OVC053/// 02/00 Q1016
  • 190150Z AUTO 23015KT 9999 // FEW014/// BKN045/// OVC068/// 02/00 Q1016
  • 190120Z AUTO 23017G27KT 9999 // OVC050/// 02/00 Q1016
  • 190050Z AUTO 23014KT 9999 // OVC055/// 03/M01 Q1016
  • 190020Z AUTO 24012KT 9999 // OVC058/// 03/M01 Q1017
  • 182350Z AUTO 23013KT 9999 // BKN063/// OVC150/// 03/M01 Q1017

Expired Forecast.
No reported NOTAMs for that airfield.



MET'MAP, your aeronautical weather chart ! - Copyright ORBIFLY December 2007 - Disclaimer

ORBIFLY MET'MAP TEAM :

Programming & Development : Alexandra Zaïnal
Concept & Development : Baudouin d'Aumeries
Co-Development & Prog : Marc-Olivier Méhu
Technical & hardware support : Manuel Goepfert

Contact : metmap@orbifly.com




SOURCES & CREDITS :

   NOAA